createdAt,value
2022-10-29T00:02:11.128Z,4.20
2022-10-29T00:04:38.190Z,3.97
2022-10-29T00:07:05.256Z,4.43
2022-10-29T00:09:32.340Z,3.70
2022-10-29T00:11:59.437Z,4.63
2022-10-29T00:14:26.524Z,5.07
2022-10-29T00:16:53.632Z,5.32
2022-10-29T00:19:20.708Z,4.78
2022-10-29T00:21:47.771Z,4.63
2022-10-29T00:24:14.880Z,4.13
2022-10-29T00:26:42.010Z,4.20
2022-10-29T00:29:09.222Z,3.92
2022-10-29T00:31:36.464Z,3.75
2022-10-29T00:34:03.593Z,4.13
2022-10-29T00:36:30.927Z,3.80
2022-10-29T00:38:58.074Z,4.00
2022-10-29T00:41:27.054Z,3.95
2022-10-29T00:44:14.135Z,4.15
2022-10-29T00:46:42.325Z,4.20
2022-10-29T00:49:09.701Z,4.00
2022-10-29T00:51:37.385Z,4.50
2022-10-29T00:54:05.852Z,4.13
2022-10-29T00:56:34.782Z,4.30
2022-10-29T00:59:02.167Z,4.68
2022-10-29T01:01:29.381Z,4.15
2022-10-29T01:04:00.167Z,4.63
2022-10-29T01:06:28.981Z,5.18
2022-10-29T01:08:56.097Z,4.72
2022-10-29T01:11:26.265Z,4.82
2022-10-29T01:14:11.980Z,4.60
2022-10-29T01:16:45.167Z,4.50
2022-10-29T01:19:15.131Z,4.47
2022-10-29T01:22:12.008Z,5.25
2022-10-29T01:24:51.005Z,4.28
2022-10-29T01:27:36.305Z,4.25
2022-10-29T01:30:11.509Z,3.95
2022-10-29T01:32:41.413Z,3.97
2022-10-29T01:35:14.251Z,4.22
2022-10-29T01:37:44.125Z,4.47
2022-10-29T01:40:11.152Z,4.38
2022-10-29T01:42:40.001Z,4.18
2022-10-29T01:45:26.832Z,4.38
2022-10-29T01:48:12.149Z,4.18
2022-10-29T01:50:40.232Z,4.25
2022-10-29T01:53:07.604Z,4.25
2022-10-29T01:55:35.305Z,4.93
2022-10-29T01:58:03.728Z,4.15
2022-10-29T02:00:43.290Z,4.15
2022-10-29T02:03:13.199Z,4.80
2022-10-29T02:05:49.163Z,3.88
2022-10-29T02:08:22.082Z,4.35
2022-10-29T02:10:53.754Z,3.97
2022-10-29T02:13:23.793Z,4.00
2022-10-29T02:15:53.638Z,4.60
2022-10-29T02:18:20.735Z,4.68
2022-10-29T02:20:48.574Z,4.47
2022-10-29T02:23:16.801Z,4.47
2022-10-29T02:25:44.165Z,4.40
2022-10-29T02:28:11.443Z,5.30
2022-10-29T02:30:38.568Z,4.72
2022-10-29T02:33:05.652Z,5.10
2022-10-29T02:35:32.721Z,4.40
2022-10-29T02:37:59.851Z,5.03
2022-10-29T02:40:26.949Z,4.00
2022-10-29T02:42:54.746Z,4.70
2022-10-29T02:45:22.095Z,5.07
2022-10-29T02:47:49.183Z,3.95
2022-10-29T02:50:16.396Z,4.68
2022-10-29T02:52:43.451Z,3.90
2022-10-29T02:55:10.526Z,4.40
2022-10-29T02:57:37.628Z,4.22
2022-10-29T03:00:05.362Z,3.83
2022-10-29T03:02:32.561Z,4.78
2022-10-29T03:04:59.756Z,4.57
2022-10-29T03:07:26.864Z,4.22
2022-10-29T03:09:53.940Z,4.00
2022-10-29T03:12:21.030Z,4.10
2022-10-29T03:14:48.157Z,4.43
2022-10-29T03:17:15.229Z,4.40
2022-10-29T03:19:42.325Z,4.65
2022-10-29T03:22:09.589Z,4.07
2022-10-29T03:24:36.685Z,4.30
2022-10-29T03:27:03.801Z,4.18
2022-10-29T03:29:30.929Z,4.57
2022-10-29T03:31:58.073Z,4.43
2022-10-29T03:34:25.206Z,4.50
2022-10-29T03:36:52.281Z,4.07
2022-10-29T03:39:19.329Z,5.40
2022-10-29T03:41:46.417Z,4.35
2022-10-29T03:44:13.475Z,4.40
2022-10-29T03:46:40.549Z,4.13
2022-10-29T03:49:07.625Z,4.47
2022-10-29T03:51:34.685Z,4.55
2022-10-29T03:54:05.143Z,4.80
2022-10-29T03:56:32.268Z,4.60
2022-10-29T03:58:59.443Z,5.15
2022-10-29T04:01:26.726Z,4.15
2022-10-29T04:03:53.842Z,4.70
2022-10-29T04:06:20.919Z,4.72
2022-10-29T04:08:48.048Z,4.63
2022-10-29T04:11:15.305Z,5.07
2022-10-29T04:13:42.399Z,4.60
2022-10-29T04:16:09.496Z,5.75
2022-10-29T04:18:36.612Z,4.32
2022-10-29T04:29:25.550Z,4.93
2022-10-29T04:31:52.696Z,4.95
2022-10-29T04:34:19.761Z,4.40
2022-10-29T04:36:46.943Z,5.65
2022-10-29T04:39:15.445Z,4.88
2022-10-29T04:41:44.319Z,4.40
2022-10-29T04:44:11.447Z,5.38
2022-10-29T04:46:38.507Z,5.38
2022-10-29T04:49:05.675Z,5.20
2022-10-29T04:51:32.798Z,5.05
2022-10-29T04:53:59.915Z,4.60
2022-10-29T04:56:26.979Z,5.15
2022-10-29T04:58:54.050Z,5.20
2022-10-29T05:01:21.398Z,5.07
2022-10-29T05:03:48.677Z,5.50
2022-10-29T05:06:15.796Z,5.13
2022-10-29T05:08:42.932Z,4.85
2022-10-29T05:11:10.009Z,5.15
2022-10-29T05:13:37.101Z,5.60
2022-10-29T05:16:04.241Z,4.82
2022-10-29T05:18:31.309Z,5.60
2022-10-29T05:20:58.384Z,5.78
2022-10-29T05:23:25.572Z,5.38
2022-10-29T05:25:52.881Z,5.20
2022-10-29T05:28:21.181Z,4.75
2022-10-29T05:30:49.348Z,5.85
2022-10-29T05:33:17.533Z,6.18
2022-10-29T05:35:44.937Z,5.75
2022-10-29T05:38:12.783Z,4.80
2022-10-29T05:40:40.215Z,5.20
2022-10-29T05:43:07.357Z,4.90
2022-10-29T05:45:34.446Z,5.50
2022-10-29T05:48:02.610Z,4.78
2022-10-29T05:50:30.603Z,5.40
2022-10-29T05:52:58.586Z,5.82
2022-10-29T05:55:26.815Z,6.65
2022-10-29T05:57:58.010Z,5.28
2022-10-29T06:00:25.490Z,5.07
2022-10-29T06:02:52.800Z,5.75
2022-10-29T06:05:20.081Z,6.15
2022-10-29T06:07:47.496Z,5.65
2022-10-29T06:10:14.614Z,5.50
2022-10-29T06:12:41.685Z,5.75
2022-10-29T06:15:08.911Z,5.80
2022-10-29T06:17:41.170Z,5.50
2022-10-29T06:20:08.820Z,5.40
2022-10-29T06:22:35.997Z,5.80
2022-10-29T06:25:03.284Z,5.40
2022-10-29T06:27:30.433Z,5.30
2022-10-29T06:29:57.534Z,5.07
2022-10-29T06:32:24.682Z,5.20
2022-10-29T06:34:51.767Z,5.75
2022-10-29T06:37:19.112Z,5.80
2022-10-29T06:39:46.214Z,5.88
2022-10-29T06:42:13.277Z,5.75
2022-10-29T06:44:40.332Z,5.50
2022-10-29T06:47:07.444Z,5.45
2022-10-29T06:49:34.525Z,5.70
2022-10-29T06:52:01.580Z,5.50
2022-10-29T06:54:28.649Z,5.10
2022-10-29T06:56:55.731Z,4.85
2022-10-29T06:59:24.411Z,4.45
2022-10-29T07:01:51.594Z,4.70
2022-10-29T07:04:18.823Z,5.30
2022-10-29T07:06:45.919Z,5.47
2022-10-29T07:09:13.001Z,6.05
2022-10-29T07:11:40.217Z,7.55
2022-10-29T07:14:08.510Z,5.72
2022-10-29T07:16:35.652Z,5.13
2022-10-29T07:19:03.129Z,5.88
2022-10-29T07:21:30.201Z,5.20
2022-10-29T07:23:57.352Z,5.50
2022-10-29T07:26:24.413Z,5.30
2022-10-29T07:28:51.492Z,6.20
2022-10-29T07:31:18.559Z,5.90
2022-10-29T07:33:45.661Z,7.20
2022-10-29T07:36:19.023Z,6.00
2022-10-29T07:38:46.141Z,7.25
2022-10-29T07:41:13.287Z,5.60
2022-10-29T07:43:40.410Z,5.85
2022-10-29T07:46:07.836Z,5.80
2022-10-29T07:48:34.905Z,4.85
2022-10-29T07:51:02.668Z,4.80
2022-10-29T07:53:31.420Z,5.32
2022-10-29T07:55:58.864Z,5.03
2022-10-29T07:58:26.398Z,4.75
2022-10-29T08:00:54.017Z,4.90
2022-10-29T08:03:21.313Z,4.50
2022-10-29T08:05:53.728Z,4.10
2022-10-29T08:08:23.768Z,3.95
2022-10-29T08:10:50.865Z,4.60
2022-10-29T08:13:17.983Z,4.10
2022-10-29T08:15:46.803Z,4.22
2022-10-29T08:18:17.649Z,3.70
2022-10-29T08:20:44.950Z,4.22
2022-10-29T08:23:12.358Z,4.20
2022-10-29T08:25:42.656Z,4.18
2022-10-29T08:28:14.101Z,5.03
2022-10-29T08:30:41.860Z,5.30
2022-10-29T08:33:09.694Z,6.63
2022-10-29T08:35:36.771Z,4.93
2022-10-29T08:38:03.904Z,6.00
2022-10-29T08:40:30.995Z,6.10
2022-10-29T08:43:00.846Z,6.55
2022-10-29T08:45:27.893Z,7.65
2022-10-29T08:48:13.848Z,6.50
2022-10-29T08:50:44.182Z,6.63
2022-10-29T08:53:23.419Z,7.43
2022-10-29T08:55:51.301Z,6.03
2022-10-29T08:58:35.985Z,5.40
2022-10-29T09:01:03.107Z,6.97
2022-10-29T09:03:30.291Z,4.88
2022-10-29T09:06:00.120Z,5.45
2022-10-29T09:08:34.973Z,4.90
2022-10-29T09:11:08.283Z,4.38
2022-10-29T09:13:46.408Z,8.82
2022-10-29T09:16:25.529Z,4.25
2022-10-29T09:19:04.454Z,5.00
2022-10-29T09:21:38.648Z,4.13
2022-10-29T09:24:24.347Z,4.28
2022-10-29T09:26:54.540Z,3.88
2022-10-29T09:29:27.400Z,3.30
2022-10-29T09:31:55.887Z,3.13
2022-10-29T09:34:38.651Z,3.78
2022-10-29T09:37:14.569Z,4.95
2022-10-29T09:39:43.066Z,3.63
2022-10-29T09:42:12.752Z,3.92
2022-10-29T09:44:56.507Z,3.15
2022-10-29T09:47:38.792Z,4.38
2022-10-29T09:50:08.651Z,3.50
2022-10-29T09:52:37.516Z,4.25
2022-10-29T09:55:06.307Z,3.17
2022-10-29T09:57:35.757Z,3.10
2022-10-29T10:00:04.521Z,3.35
2022-10-29T10:02:43.435Z,3.53
2022-10-29T10:05:13.401Z,3.50
2022-10-29T10:07:40.840Z,3.90
2022-10-29T10:10:09.309Z,3.08
2022-10-29T10:12:39.170Z,2.80
2022-10-29T10:15:21.317Z,2.97
2022-10-29T10:18:05.180Z,3.45
2022-10-29T10:20:32.268Z,3.35
2022-10-29T10:22:59.648Z,3.40
2022-10-29T10:25:38.065Z,3.63
2022-10-29T10:28:18.770Z,3.25
2022-10-29T10:31:07.054Z,3.70
2022-10-29T10:33:35.431Z,3.33
2022-10-29T10:36:08.225Z,3.08
2022-10-29T10:38:42.604Z,3.25
2022-10-29T10:41:11.871Z,3.28
2022-10-29T10:43:39.857Z,3.25
2022-10-29T10:46:12.583Z,3.50
2022-10-29T10:48:40.045Z,3.00
2022-10-29T10:51:11.164Z,3.10
2022-10-29T10:53:40.661Z,3.33
2022-10-29T10:56:16.192Z,3.85
2022-10-29T10:58:45.854Z,3.00
2022-10-29T11:01:19.382Z,3.42
2022-10-29T11:03:46.657Z,3.22
2022-10-29T11:06:26.117Z,2.97
2022-10-29T11:08:55.396Z,2.90
2022-10-29T11:11:28.420Z,3.25
2022-10-29T11:13:59.149Z,2.63
2022-10-29T11:16:39.542Z,3.65
2022-10-29T11:19:19.173Z,3.00
2022-10-29T11:21:57.521Z,3.30
2022-10-29T11:24:26.937Z,3.35
2022-10-29T11:26:56.930Z,3.42
2022-10-29T11:29:42.149Z,3.08
2022-10-29T11:32:17.199Z,3.22
2022-10-29T11:35:03.771Z,3.33
2022-10-29T11:37:39.055Z,3.17
2022-10-29T11:40:15.325Z,3.13
2022-10-29T11:42:42.807Z,3.35
2022-10-29T11:45:11.957Z,3.28
2022-10-29T11:47:56.912Z,2.72
2022-10-29T11:50:43.516Z,3.30
2022-10-29T11:53:29.453Z,3.10
2022-10-29T11:56:15.748Z,2.83
2022-10-29T11:58:55.556Z,3.22
2022-10-29T12:01:41.305Z,3.15
2022-10-29T12:04:23.006Z,3.88
2022-10-29T12:06:54.837Z,3.30
2022-10-29T12:09:32.703Z,3.90
2022-10-29T12:12:08.432Z,3.67
2022-10-29T12:14:39.580Z,3.80
2022-10-29T12:17:10.121Z,3.13
2022-10-29T12:19:37.226Z,2.92
2022-10-29T12:22:17.035Z,3.92
2022-10-29T12:25:04.932Z,4.72
2022-10-29T12:27:35.903Z,4.38
2022-10-29T12:30:07.535Z,3.40
2022-10-29T12:32:54.237Z,4.63
2022-10-29T12:35:24.453Z,2.95
2022-10-29T12:38:00.519Z,3.42
2022-10-29T12:40:32.503Z,3.15
2022-10-29T12:43:12.870Z,2.92
2022-10-29T12:46:14.759Z,3.28
2022-10-29T12:48:42.767Z,3.30
2022-10-29T12:51:15.979Z,4.03
2022-10-29T12:53:51.936Z,3.50
2022-10-29T12:56:19.516Z,3.08
2022-10-29T12:58:53.037Z,3.08
2022-10-29T13:02:09.848Z,3.40
2022-10-29T13:04:32.613Z,4.47
2022-10-29T13:07:07.116Z,3.63
2022-10-29T13:09:38.144Z,3.28
2022-10-29T13:12:09.877Z,2.90
2022-10-29T13:14:48.937Z,2.85
2022-10-29T13:17:39.412Z,3.15
2022-10-29T13:20:15.764Z,3.10
2022-10-29T13:22:56.633Z,2.90
2022-10-29T13:25:40.335Z,2.80
2022-10-29T13:28:10.390Z,2.88
2022-10-29T13:30:38.823Z,3.38
2022-10-29T13:33:21.000Z,3.45
2022-10-29T13:36:26.337Z,3.25
2022-10-29T13:39:05.713Z,3.53
2022-10-29T13:41:40.216Z,3.20
2022-10-29T13:44:14.981Z,2.67
2022-10-29T13:46:46.146Z,3.28
2022-10-29T13:49:16.295Z,3.03
2022-10-29T13:51:50.204Z,2.58
2022-10-29T13:54:17.393Z,2.47
2022-10-29T13:56:47.062Z,2.70
2022-10-29T13:59:37.557Z,3.13
2022-10-29T14:02:23.224Z,3.50
2022-10-29T14:04:53.448Z,3.17
2022-10-29T14:07:24.505Z,2.90
2022-10-29T14:09:53.898Z,3.97
2022-10-29T14:12:22.818Z,3.67
2022-10-29T14:15:03.849Z,3.70
2022-10-29T14:17:30.932Z,2.78
2022-10-29T14:19:58.710Z,2.80
2022-10-29T14:22:30.324Z,3.42
2022-10-29T14:24:57.770Z,2.75
2022-10-29T14:27:24.970Z,3.03
2022-10-29T14:29:54.674Z,3.45
2022-10-29T14:32:23.133Z,2.85
2022-10-29T14:34:50.976Z,2.97
2022-10-29T14:37:18.157Z,3.40
2022-10-29T14:39:58.057Z,3.88
2022-10-29T14:42:46.360Z,3.65
2022-10-29T14:45:28.280Z,3.15
2022-10-29T14:47:59.832Z,3.93
2022-10-29T14:50:27.696Z,3.80
2022-10-29T14:53:05.620Z,4.80
2022-10-29T14:55:35.683Z,4.55
2022-10-29T14:58:08.485Z,4.15
2022-10-29T15:00:37.010Z,4.35
2022-10-29T15:03:05.331Z,4.40
2022-10-29T15:05:34.861Z,4.20
2022-10-29T15:08:11.277Z,4.22
2022-10-29T15:10:45.961Z,5.03
2022-10-29T15:13:23.969Z,4.25
2022-10-29T15:15:53.075Z,3.97
2022-10-29T15:18:21.674Z,3.97
2022-10-29T15:20:48.940Z,4.18
2022-10-29T15:23:36.830Z,3.47
2022-10-29T15:26:09.757Z,3.90
2022-10-29T15:28:41.403Z,3.83
2022-10-29T15:31:08.528Z,3.85
2022-10-29T15:33:36.585Z,4.82
2022-10-29T15:36:04.967Z,3.80
2022-10-29T15:38:34.833Z,4.00
2022-10-29T15:41:08.120Z,3.88
2022-10-29T15:43:36.716Z,4.82
2022-10-29T15:46:04.575Z,5.13
2022-10-29T15:48:37.745Z,4.70
2022-10-29T15:51:04.978Z,4.80
2022-10-29T15:53:32.226Z,4.18
2022-10-29T15:56:00.511Z,4.25
2022-10-29T15:58:27.640Z,5.18
2022-10-29T16:00:54.780Z,4.53
2022-10-29T16:03:21.926Z,5.63
2022-10-29T16:05:50.633Z,5.30
2022-10-29T16:08:24.099Z,6.30
2022-10-29T16:10:51.358Z,6.47
2022-10-29T16:13:19.316Z,8.02
2022-10-29T16:15:46.504Z,8.68
2022-10-29T16:18:14.843Z,7.30
2022-10-29T16:20:42.122Z,9.88
2022-10-29T16:23:10.731Z,9.52
2022-10-29T16:25:37.827Z,10.55
2022-10-29T16:28:05.141Z,10.50
2022-10-29T16:30:32.361Z,9.48
2022-10-29T16:33:01.337Z,8.07
2022-10-29T16:35:29.563Z,7.85
2022-10-29T16:37:57.145Z,6.40
2022-10-29T16:40:28.158Z,6.75
2022-10-29T16:42:55.759Z,6.15
2022-10-29T16:45:24.937Z,6.47
2022-10-29T16:47:52.274Z,6.80
2022-10-29T16:50:37.567Z,8.20
2022-10-29T16:53:11.713Z,7.68
2022-10-29T16:55:39.615Z,8.60
2022-10-29T16:58:07.339Z,13.73
2022-10-29T17:00:36.590Z,14.02
2022-10-29T17:03:06.773Z,12.90
2022-10-29T17:05:37.845Z,12.68
2022-10-29T17:08:05.072Z,11.93
2022-10-29T17:10:32.163Z,12.55
2022-10-29T17:12:59.977Z,7.57
2022-10-29T17:15:27.604Z,11.18
2022-10-29T17:17:54.791Z,7.90
2022-10-29T17:20:22.057Z,7.45
2022-10-29T17:22:49.186Z,7.43
2022-10-29T17:25:16.301Z,7.35
2022-10-29T17:27:43.380Z,6.05
2022-10-29T17:30:11.137Z,6.38
2022-10-29T17:32:38.636Z,10.20
2022-10-29T17:35:05.907Z,7.70
2022-10-29T17:37:33.125Z,7.72
2022-10-29T17:40:03.235Z,7.88
2022-10-29T17:42:34.134Z,8.23
2022-10-29T17:45:01.205Z,6.93
2022-10-29T17:47:28.447Z,8.07
2022-10-29T17:49:55.620Z,7.50
2022-10-29T17:52:22.695Z,6.55
2022-10-29T17:54:49.842Z,7.03
2022-10-29T17:57:16.924Z,7.10
2022-10-29T17:59:44.014Z,8.75
2022-10-29T18:02:14.066Z,9.65
2022-10-29T18:04:41.295Z,10.45
2022-10-29T18:07:08.407Z,13.00
2022-10-29T18:09:35.452Z,13.20
2022-10-29T18:12:02.619Z,14.95
2022-10-29T18:14:29.850Z,13.88
2022-10-29T18:16:56.946Z,13.65
2022-10-29T18:19:24.105Z,12.82
2022-10-29T18:21:51.189Z,11.85
2022-10-29T18:24:19.399Z,10.65
2022-10-29T18:26:50.185Z,11.35
2022-10-29T18:29:17.389Z,11.95
2022-10-29T18:31:45.710Z,11.10
2022-10-29T18:34:15.015Z,11.35
2022-10-29T18:36:42.907Z,9.40
2022-10-29T18:39:09.993Z,9.57
2022-10-29T18:41:37.147Z,9.25
2022-10-29T18:44:04.448Z,7.50
2022-10-29T18:46:31.640Z,8.52
2022-10-29T18:49:00.277Z,7.50
2022-10-29T18:51:28.622Z,8.30
2022-10-29T18:53:57.880Z,7.15
2022-10-29T18:56:26.519Z,6.90
2022-10-29T18:58:55.526Z,7.22
2022-10-29T19:01:24.251Z,6.75
2022-10-29T19:03:52.566Z,6.00
2022-10-29T19:06:20.352Z,6.10
2022-10-29T19:08:47.560Z,6.97
2022-10-29T19:11:16.291Z,8.05
2022-10-29T19:13:43.477Z,8.98
2022-10-29T19:16:11.844Z,7.63
2022-10-29T19:18:39.868Z,7.75
2022-10-29T19:21:11.354Z,8.30
2022-10-29T19:23:38.761Z,8.48
2022-10-29T19:26:13.273Z,12.23
2022-10-29T19:28:41.077Z,10.27
2022-10-29T19:31:09.537Z,9.15
2022-10-29T19:33:36.997Z,9.68
2022-10-29T19:36:05.015Z,9.45
2022-10-29T19:38:32.200Z,8.77
2022-10-29T19:40:59.285Z,9.15
2022-10-29T19:43:26.773Z,8.82
2022-10-29T19:45:53.945Z,9.60
2022-10-29T19:48:21.079Z,8.13
2022-10-29T19:50:56.006Z,8.15
2022-10-29T19:53:24.376Z,7.20
2022-10-29T19:55:51.824Z,7.60
2022-10-29T19:58:19.196Z,6.93
2022-10-29T20:00:46.540Z,6.82
2022-10-29T20:03:14.260Z,6.07
2022-10-29T20:05:41.853Z,7.47
2022-10-29T20:08:11.516Z,7.82
2022-10-29T20:10:42.042Z,7.50
2022-10-29T20:13:09.215Z,8.20
2022-10-29T20:15:38.610Z,7.80
2022-10-29T20:18:05.767Z,8.60
2022-10-29T20:20:32.923Z,9.32
2022-10-29T20:23:00.648Z,6.68
2022-10-29T20:25:28.403Z,6.57
2022-10-29T20:27:55.508Z,7.45
2022-10-29T20:30:22.664Z,6.80
2022-10-29T20:32:49.949Z,6.72
2022-10-29T20:35:17.482Z,7.00
2022-10-29T20:37:44.643Z,6.75
2022-10-29T20:40:12.103Z,6.90
2022-10-29T20:42:39.239Z,7.28
2022-10-29T20:45:06.917Z,7.18
2022-10-29T20:47:34.040Z,7.65
2022-10-29T20:50:01.140Z,7.45
2022-10-29T20:52:30.324Z,10.73
2022-10-29T20:54:57.405Z,9.82
2022-10-29T20:57:24.519Z,8.65
2022-10-29T20:59:51.597Z,8.88
2022-10-29T21:02:18.794Z,9.00
2022-10-29T21:04:45.995Z,9.70
2022-10-29T21:07:13.101Z,9.63
2022-10-29T21:09:40.212Z,8.98
2022-10-29T21:12:07.455Z,9.23
2022-10-29T21:14:34.520Z,9.85
2022-10-29T21:17:01.698Z,9.70
2022-10-29T21:19:28.754Z,10.75
2022-10-29T21:21:55.874Z,14.48
2022-10-29T21:24:22.977Z,10.48
2022-10-29T21:26:50.164Z,9.68
2022-10-29T21:29:17.330Z,8.85
2022-10-29T21:31:45.009Z,10.35
2022-10-29T21:34:12.060Z,9.52
2022-10-29T21:36:39.158Z,9.80
2022-10-29T21:39:06.206Z,8.30
2022-10-29T21:41:33.265Z,7.03
2022-10-29T21:44:00.408Z,5.85
2022-10-29T21:46:27.469Z,7.60
2022-10-29T21:48:56.304Z,6.68
2022-10-29T21:51:23.398Z,8.50
2022-10-29T21:53:50.536Z,6.97
2022-10-29T21:56:17.641Z,6.97
2022-10-29T21:58:44.786Z,6.53
2022-10-29T22:01:13.487Z,6.35
2022-10-29T22:03:41.612Z,6.63
2022-10-29T22:06:11.198Z,6.35
2022-10-29T22:08:38.277Z,7.13
2022-10-29T22:11:05.979Z,6.70
2022-10-29T22:13:33.912Z,6.43
2022-10-29T22:16:01.255Z,7.05
2022-10-29T22:18:28.816Z,6.35
2022-10-29T22:21:07.984Z,6.78
2022-10-29T22:23:35.120Z,7.03
2022-10-29T22:26:02.214Z,6.65
2022-10-29T22:28:29.323Z,6.45
2022-10-29T22:31:00.383Z,6.55
2022-10-29T22:33:27.978Z,6.88
2022-10-29T22:35:55.334Z,6.53
2022-10-29T22:38:22.400Z,6.30
2022-10-29T22:40:49.469Z,6.32
2022-10-29T22:43:16.791Z,5.93
2022-10-29T22:45:45.371Z,5.60
2022-10-29T22:48:12.567Z,6.63
2022-10-29T22:50:39.701Z,6.60
2022-10-29T22:53:06.762Z,6.47
2022-10-29T22:55:33.876Z,5.07
2022-10-29T22:58:00.972Z,5.45
2022-10-29T23:00:28.154Z,5.90
2022-10-29T23:02:55.560Z,5.80
2022-10-29T23:05:22.814Z,5.60
2022-10-29T23:07:49.901Z,5.47
2022-10-29T23:10:16.972Z,5.32
2022-10-29T23:12:44.072Z,5.03
2022-10-29T23:15:11.268Z,5.03
2022-10-29T23:17:38.327Z,4.72
2022-10-29T23:20:05.509Z,7.28
2022-10-29T23:22:32.630Z,9.10
2022-10-29T23:24:59.709Z,9.70
2022-10-29T23:27:26.905Z,9.45
2022-10-29T23:29:54.025Z,8.90
2022-10-29T23:32:21.120Z,9.68
2022-10-29T23:34:48.175Z,8.38
2022-10-29T23:37:15.255Z,8.95
2022-10-29T23:39:42.317Z,9.07
2022-10-29T23:42:09.490Z,9.15
2022-10-29T23:44:36.537Z,8.70
2022-10-29T23:47:03.616Z,8.88
2022-10-29T23:49:30.712Z,10.32
2022-10-29T23:51:57.794Z,8.90
2022-10-29T23:54:24.862Z,8.23
2022-10-29T23:56:51.948Z,8.55
2022-10-29T23:59:19.056Z,8.35
